Time;durP1;ratioP1;P1;durP2;ratioP2;P2;SDS_P1;SDS_P2;PMS_P1;PMS_P2;Temp;Humidity;BMP_temperature;BMP_pressure;BME280_temperature;BME280_humidity;BME280_pressure;Samples;Min_cycle;Max_cycle;Signal;HPM_P1;HPM_P2
2022/03/25 00:00:26;;;;;;;;;;;19.90;95.90;;;;;;5094029;28;19928;-55
2022/03/25 00:02:53;;;;;;;;;;;19.90;95.90;;;;;;5095460;28;19928;-53
2022/03/25 00:05:21;;;;;;;;;;;19.90;96.00;;;;;;5095405;28;19920;-54
2022/03/25 00:07:48;;;;;;;;;;;19.90;96.00;;;;;;5092736;28;19931;-55
2022/03/25 00:10:15;;;;;;;;;;;19.90;96.00;;;;;;5086085;28;20395;-51
2022/03/25 00:12:42;;;;;;;;;;;19.90;96.00;;;;;;5090702;28;19924;-57
2022/03/25 00:15:10;;;;;;;;;;;19.90;96.00;;;;;;5101925;28;19924;-56
2022/03/25 00:17:37;;;;;;;;;;;19.90;96.00;;;;;;5090114;28;19935;-55
2022/03/25 00:20:04;;;;;;;;;;;19.90;96.00;;;;;;5092067;28;19928;-56
2022/03/25 00:22:31;;;;;;;;;;;19.80;96.00;;;;;;5091025;28;20384;-54
2022/03/25 00:24:58;;;;;;;;;;;19.80;96.00;;;;;;5090913;28;19924;-50
2022/03/25 00:27:26;;;;;;;;;;;19.90;96.20;;;;;;5091330;28;20380;-53
2022/03/25 00:29:53;;;;;;;;;;;19.90;96.10;;;;;;5099627;28;20388;-58
2022/03/25 00:32:21;;;;;;;;;;;19.90;96.00;;;;;;5091881;28;19934;-54
2022/03/25 00:34:48;;;;;;;;;;;19.90;96.10;;;;;;5097774;28;19924;-55
2022/03/25 00:37:15;;;;;;;;;;;19.90;96.10;;;;;;5092353;28;19939;-56
2022/03/25 00:39:42;;;;;;;;;;;19.90;96.20;;;;;;5091013;28;19924;-54
2022/03/25 00:42:13;;;;;;;;;;;19.90;96.30;;;;;;5096233;28;20483;-54
2022/03/25 00:44:41;;;;;;;;;;;19.90;96.20;;;;;;5094262;28;19978;-54
2022/03/25 00:47:09;;;;;;;;;;;19.90;96.20;;;;;;5089969;28;19924;-57
2022/03/25 00:49:38;;;;;;;;;;;19.90;96.40;;;;;;5099654;28;20304;-54
2022/03/25 00:52:06;;;;;;;;;;;19.90;96.50;;;;;;5090814;28;19927;-56
2022/03/25 00:54:33;;;;;;;;;;;19.90;96.60;;;;;;5107182;28;20307;-53
2022/03/25 00:57:02;;;;;;;;;;;20.00;96.30;;;;;;5097032;28;19920;-55
2022/03/25 00:59:29;;;;;;;;;;;19.90;96.10;;;;;;5104726;28;19924;-54
2022/03/25 01:01:57;;;;;;;;;;;19.80;95.90;;;;;;5100345;28;19920;-55
2022/03/25 01:04:27;;;;;;;;;;;19.70;95.20;;;;;;5102589;28;19935;-55
2022/03/25 01:06:55;;;;;;;;;;;19.60;94.10;;;;;;5089396;28;19935;-54
2022/03/25 01:09:22;;;;;;;;;;;19.60;92.90;;;;;;5100328;28;20367;-56
2022/03/25 01:11:49;;;;;;;;;;;19.60;92.00;;;;;;5106996;28;19950;-57
2022/03/25 01:14:19;;;;;;;;;;;19.60;91.80;;;;;;5105096;28;19930;-52
2022/03/25 01:16:47;;;;;;;;;;;19.70;91.60;;;;;;5093626;28;19939;-55
2022/03/25 01:19:14;;;;;;;;;;;19.70;91.90;;;;;;5087921;28;19927;-52
2022/03/25 01:21:41;;;;;;;;;;;19.70;92.20;;;;;;5102594;28;19923;-56
2022/03/25 01:24:09;;;;;;;;;;;19.60;91.90;;;;;;5087005;28;19923;-54
2022/03/25 01:26:37;;;;;;;;;;;19.70;91.90;;;;;;5068820;28;19924;-52
2022/03/25 01:29:05;;;;;;;;;;;19.70;92.00;;;;;;5087050;28;19924;-55
2022/03/25 01:31:32;;;;;;;;;;;19.70;92.10;;;;;;5090960;28;19927;-54
2022/03/25 01:34:02;;;;;;;;;;;19.70;92.20;;;;;;5094485;28;19934;-51
2022/03/25 01:36:30;;;;;;;;;;;19.70;92.30;;;;;;5092741;28;19920;-53
2022/03/25 01:38:58;;;;;;;;;;;19.70;92.40;;;;;;5086980;28;19943;-52
2022/03/25 01:41:25;;;;;;;;;;;19.70;92.50;;;;;;5087210;28;20049;-54
2022/03/25 01:43:56;;;;;;;;;;;19.60;92.60;;;;;;5091427;28;19943;-56
2022/03/25 01:46:24;;;;;;;;;;;19.60;92.70;;;;;;5096864;28;19931;-51
2022/03/25 01:48:51;;;;;;;;;;;19.70;93.00;;;;;;5088011;28;19943;-54
2022/03/25 01:51:20;;;;;;;;;;;19.70;93.10;;;;;;5099632;28;20611;-54
2022/03/25 01:53:47;;;;;;;;;;;19.70;93.20;;;;;;5088043;28;19920;-54
2022/03/25 01:56:22;;;;;;;;;;;19.70;93.30;;;;;;5081028;28;19935;-52
2022/03/25 01:58:50;;;;;;;;;;;19.60;93.20;;;;;;5070192;28;19931;-54
2022/03/25 02:01:17;;;;;;;;;;;19.70;93.50;;;;;;5076877;28;19920;-55
2022/03/25 02:03:47;;;;;;;;;;;19.70;93.80;;;;;;5087265;28;19931;-54
2022/03/25 02:06:15;;;;;;;;;;;19.60;93.80;;;;;;5094678;28;20249;-56
2022/03/25 02:08:42;;;;;;;;;;;19.60;93.90;;;;;;5093167;28;19927;-54
2022/03/25 02:11:09;;;;;;;;;;;19.60;94.00;;;;;;5088943;28;19920;-55
2022/03/25 02:13:37;;;;;;;;;;;19.60;94.10;;;;;;5088745;28;19924;-53
2022/03/25 02:16:04;;;;;;;;;;;19.60;94.00;;;;;;5099274;28;19951;-55
2022/03/25 02:18:31;;;;;;;;;;;19.60;94.10;;;;;;5087420;28;19924;-54
2022/03/25 02:20:59;;;;;;;;;;;19.60;94.20;;;;;;5086660;28;19931;-51
2022/03/25 02:23:26;;;;;;;;;;;19.60;94.00;;;;;;5103400;28;19931;-51
2022/03/25 02:25:53;;;;;;;;;;;19.70;94.10;;;;;;5094049;28;19924;-52
2022/03/25 02:28:22;;;;;;;;;;;19.60;94.20;;;;;;5069608;28;19930;-52
2022/03/25 02:30:54;;;;;;;;;;;19.60;94.50;;;;;;5077594;28;19970;-52
2022/03/25 02:33:21;;;;;;;;;;;19.60;94.30;;;;;;5077132;28;20018;-52
2022/03/25 02:35:49;;;;;;;;;;;19.60;94.40;;;;;;5084006;28;20481;-51
2022/03/25 02:38:18;;;;;;;;;;;19.60;94.60;;;;;;5075449;28;19928;-53
2022/03/25 02:40:45;;;;;;;;;;;19.50;94.70;;;;;;5092695;28;19934;-56
2022/03/25 02:43:12;;;;;;;;;;;19.60;94.60;;;;;;5075920;28;19924;-53
2022/03/25 02:45:47;;;;;;;;;;;19.50;94.60;;;;;;5084879;28;19926;-53
2022/03/25 02:48:14;;;;;;;;;;;19.60;94.60;;;;;;5100129;28;19927;-54
2022/03/25 02:50:42;;;;;;;;;;;19.60;94.70;;;;;;5086709;28;20276;-51
2022/03/25 02:53:09;;;;;;;;;;;19.60;94.70;;;;;;5084751;28;19935;-56
2022/03/25 02:55:36;;;;;;;;;;;19.60;94.70;;;;;;5086164;28;19928;-55
2022/03/25 02:58:04;;;;;;;;;;;19.60;94.80;;;;;;5096295;28;19924;-53
2022/03/25 03:00:32;;;;;;;;;;;19.50;94.80;;;;;;5095467;28;20297;-53
2022/03/25 03:03:02;;;;;;;;;;;19.50;94.90;;;;;;5106117;28;20411;-53
2022/03/25 03:05:30;;;;;;;;;;;19.50;94.90;;;;;;5087033;28;19927;-54
2022/03/25 03:07:57;;;;;;;;;;;19.50;95.10;;;;;;5086775;28;19932;-52
2022/03/25 03:10:25;;;;;;;;;;;19.50;95.10;;;;;;5086550;28;19924;-57
2022/03/25 03:12:52;;;;;;;;;;;19.50;95.20;;;;;;5095100;28;19924;-52
2022/03/25 03:15:20;;;;;;;;;;;19.40;95.30;;;;;;5096697;28;20380;-56
2022/03/25 03:17:48;;;;;;;;;;;19.40;95.30;;;;;;5086392;28;20023;-56
2022/03/25 03:20:16;;;;;;;;;;;19.40;95.50;;;;;;5086230;28;19920;-52
2022/03/25 03:22:43;;;;;;;;;;;19.40;95.50;;;;;;5085502;28;19924;-53
2022/03/25 03:25:10;;;;;;;;;;;19.40;95.60;;;;;;5083834;28;20037;-54
2022/03/25 03:27:38;;;;;;;;;;;19.40;95.60;;;;;;5086637;28;19924;-53
2022/03/25 03:30:06;;;;;;;;;;;19.50;95.60;;;;;;5086196;28;19927;-56
2022/03/25 03:32:34;;;;;;;;;;;19.50;95.60;;;;;;5087210;28;19931;-53
2022/03/25 03:35:01;;;;;;;;;;;19.50;95.60;;;;;;5093895;28;19931;-53
2022/03/25 03:37:28;;;;;;;;;;;19.50;95.60;;;;;;5099643;28;19924;-55
2022/03/25 03:39:56;;;;;;;;;;;19.50;95.40;;;;;;5091800;28;19924;-55
2022/03/25 03:42:23;;;;;;;;;;;19.50;95.40;;;;;;5085342;28;19939;-57
2022/03/25 03:44:50;;;;;;;;;;;19.50;95.40;;;;;;5088445;28;19923;-55
2022/03/25 03:47:17;;;;;;;;;;;19.50;95.20;;;;;;5087721;28;20518;-53
2022/03/25 03:49:44;;;;;;;;;;;19.50;95.30;;;;;;5099604;28;19924;-53
2022/03/25 03:52:11;;;;;;;;;;;19.50;95.60;;;;;;5087023;28;19927;-53
2022/03/25 03:54:39;;;;;;;;;;;19.50;95.50;;;;;;5090062;28;19924;-55
2022/03/25 03:57:08;;;;;;;;;;;19.50;95.40;;;;;;5098480;28;19919;-53
2022/03/25 03:59:35;;;;;;;;;;;19.40;95.60;;;;;;5092380;28;19920;-53
2022/03/25 04:02:03;;;;;;;;;;;19.50;95.60;;;;;;5089392;28;20030;-54
2022/03/25 04:04:30;;;;;;;;;;;19.40;95.90;;;;;;5088975;28;19939;-54
2022/03/25 04:06:57;;;;;;;;;;;19.50;95.70;;;;;;5096830;28;19931;-53
2022/03/25 04:09:24;;;;;;;;;;;19.50;95.70;;;;;;5088649;28;19931;-56
2022/03/25 04:11:53;;;;;;;;;;;19.50;95.70;;;;;;5089207;28;19935;-53
2022/03/25 04:14:20;;;;;;;;;;;19.50;95.80;;;;;;5094256;28;19920;-53
2022/03/25 04:16:48;;;;;;;;;;;19.50;95.70;;;;;;5089392;28;20399;-53
2022/03/25 04:19:15;;;;;;;;;;;19.40;95.90;;;;;;5089655;28;19924;-52
2022/03/25 04:21:42;;;;;;;;;;;19.40;96.10;;;;;;5090232;28;19932;-56
2022/03/25 04:24:09;;;;;;;;;;;19.40;96.10;;;;;;5090121;28;19927;-53
2022/03/25 04:26:36;;;;;;;;;;;19.40;96.40;;;;;;5107160;28;19927;-54
2022/03/25 04:29:03;;;;;;;;;;;19.40;96.20;;;;;;5109656;28;19931;-56
2022/03/25 04:31:30;;;;;;;;;;;19.40;96.20;;;;;;5090929;28;19920;-58
2022/03/25 04:33:57;;;;;;;;;;;19.40;96.30;;;;;;5093486;28;19928;-53
2022/03/25 04:36:25;;;;;;;;;;;19.30;96.40;;;;;;5099565;28;19935;-56
2022/03/25 04:38:52;;;;;;;;;;;19.40;96.50;;;;;;5090061;28;19931;-53
2022/03/25 04:41:19;;;;;;;;;;;19.40;96.60;;;;;;5095485;28;19935;-53
2022/03/25 04:43:47;;;;;;;;;;;19.40;96.60;;;;;;5098416;28;20400;-53
2022/03/25 04:46:14;;;;;;;;;;;19.40;96.60;;;;;;5105837;28;20292;-56
2022/03/25 04:48:42;;;;;;;;;;;19.40;96.60;;;;;;5091187;28;20388;-56
2022/03/25 04:51:09;;;;;;;;;;;19.30;96.40;;;;;;5087820;28;19927;-56
2022/03/25 04:53:37;;;;;;;;;;;19.40;96.30;;;;;;5089139;28;19990;-54
2022/03/25 04:56:04;;;;;;;;;;;19.30;96.30;;;;;;5099975;28;19930;-56
2022/03/25 04:58:32;;;;;;;;;;;19.30;96.30;;;;;;5094795;28;19947;-54
2022/03/25 05:00:59;;;;;;;;;;;19.30;96.40;;;;;;5090690;28;20635;-54
2022/03/25 05:03:26;;;;;;;;;;;19.40;96.40;;;;;;5087785;28;19920;-52
2022/03/25 05:05:53;;;;;;;;;;;19.30;96.60;;;;;;5088496;28;19950;-53
2022/03/25 05:08:21;;;;;;;;;;;19.30;96.80;;;;;;5100719;28;19927;-53
2022/03/25 05:10:48;;;;;;;;;;;19.30;96.90;;;;;;5084947;28;20309;-53
2022/03/25 05:13:27;;;;;;;;;;;19.20;96.70;;;;;;5099959;28;20301;-50
2022/03/25 05:15:55;;;;;;;;;;;19.30;96.80;;;;;;5101707;28;19924;-50
2022/03/25 05:18:23;;;;;;;;;;;19.30;96.80;;;;;;5096235;28;19931;-51
2022/03/25 05:20:50;;;;;;;;;;;19.20;96.70;;;;;;5106159;28;19939;-55
2022/03/25 05:23:17;;;;;;;;;;;19.20;96.70;;;;;;5101078;28;20287;-51
2022/03/25 05:25:44;;;;;;;;;;;19.20;96.70;;;;;;5097457;28;19931;-58
2022/03/25 05:28:11;;;;;;;;;;;19.20;96.60;;;;;;5092833;28;20376;-52
2022/03/25 05:30:39;;;;;;;;;;;19.20;96.60;;;;;;5099044;28;19924;-55
2022/03/25 05:33:06;;;;;;;;;;;19.20;96.60;;;;;;5102237;28;19920;-56
2022/03/25 05:35:34;;;;;;;;;;;19.20;96.60;;;;;;5094005;28;19931;-55
2022/03/25 05:38:01;;;;;;;;;;;19.30;96.50;;;;;;5091880;28;19931;-56
2022/03/25 05:40:28;;;;;;;;;;;19.30;96.30;;;;;;5089256;28;19928;-54
2022/03/25 05:42:56;;;;;;;;;;;19.30;96.10;;;;;;5105583;28;19924;-52
2022/03/25 05:45:23;;;;;;;;;;;19.20;96.10;;;;;;5097084;28;20328;-56
2022/03/25 05:47:51;;;;;;;;;;;19.20;96.10;;;;;;5087565;28;19931;-55
2022/03/25 05:50:18;;;;;;;;;;;19.20;96.00;;;;;;5078944;28;19924;-56
2022/03/25 05:52:46;;;;;;;;;;;19.20;96.10;;;;;;5099138;28;19947;-55
2022/03/25 05:55:13;;;;;;;;;;;19.30;96.50;;;;;;5087905;28;20695;-53
2022/03/25 05:57:41;;;;;;;;;;;19.40;96.70;;;;;;5107565;28;19935;-55
2022/03/25 06:00:13;;;;;;;;;;;19.40;96.90;;;;;;5104595;28;19924;-58
2022/03/25 06:02:42;;;;;;;;;;;19.40;96.90;;;;;;5105208;28;19938;-57
2022/03/25 06:05:10;;;;;;;;;;;19.40;97.00;;;;;;5093355;28;19923;-58
2022/03/25 06:07:38;;;;;;;;;;;19.50;97.00;;;;;;5097865;28;19924;-56
2022/03/25 06:10:06;;;;;;;;;;;19.50;97.00;;;;;;5096885;28;20308;-61
2022/03/25 06:12:33;;;;;;;;;;;19.50;96.80;;;;;;5096061;28;19931;-59
2022/03/25 06:15:00;;;;;;;;;;;19.60;96.80;;;;;;5103529;28;19939;-55
2022/03/25 06:17:28;;;;;;;;;;;19.60;96.70;;;;;;5103060;28;20356;-59
2022/03/25 06:19:55;;;;;;;;;;;19.60;96.80;;;;;;5106321;28;20419;-62
2022/03/25 06:22:24;;;;;;;;;;;19.70;96.80;;;;;;5099799;28;19943;-59
2022/03/25 06:24:52;;;;;;;;;;;19.70;97.30;;;;;;5102402;28;19922;-58
2022/03/25 06:27:20;;;;;;;;;;;19.70;97.00;;;;;;5107614;28;19930;-63
2022/03/25 06:29:47;;;;;;;;;;;19.80;97.00;;;;;;5099001;28;19923;-59
2022/03/25 06:32:14;;;;;;;;;;;19.80;97.10;;;;;;5093731;28;19942;-59
2022/03/25 06:34:41;;;;;;;;;;;19.90;97.50;;;;;;5100675;28;19993;-60
2022/03/25 06:37:08;;;;;;;;;;;19.90;97.50;;;;;;5092788;28;20426;-63
2022/03/25 06:39:35;;;;;;;;;;;19.90;97.60;;;;;;5104201;28;19920;-59
2022/03/25 06:42:03;;;;;;;;;;;20.00;97.70;;;;;;5101878;28;19924;-65
2022/03/25 06:44:30;;;;;;;;;;;20.00;97.60;;;;;;5104859;28;19927;-66
2022/03/25 06:46:57;;;;;;;;;;;19.90;97.80;;;;;;5095473;28;20546;-66
2022/03/25 06:49:25;;;;;;;;;;;19.90;97.90;;;;;;5097073;28;20300;-64
2022/03/25 06:51:53;;;;;;;;;;;19.90;98.00;;;;;;5099075;28;19923;-65
2022/03/25 06:54:20;;;;;;;;;;;19.90;98.10;;;;;;5100806;28;19930;-67
2022/03/25 06:56:48;;;;;;;;;;;19.90;98.20;;;;;;5087588;28;19995;-64
2022/03/25 06:59:16;;;;;;;;;;;19.90;98.40;;;;;;5092766;28;19928;-64
2022/03/25 07:01:44;;;;;;;;;;;20.00;98.50;;;;;;5075288;28;19927;-64
2022/03/25 07:04:11;;;;;;;;;;;19.90;98.40;;;;;;5093070;28;19927;-63
2022/03/25 07:06:38;;;;;;;;;;;20.00;98.60;;;;;;5097838;28;19934;-66
2022/03/25 07:09:06;;;;;;;;;;;20.00;98.70;;;;;;5093464;28;20289;-67
2022/03/25 07:11:36;;;;;;;;;;;20.00;98.80;;;;;;5093503;28;20453;-66
2022/03/25 07:14:03;;;;;;;;;;;20.00;98.50;;;;;;5094382;28;19938;-65
2022/03/25 07:16:31;;;;;;;;;;;20.00;98.70;;;;;;5088903;28;19995;-66
2022/03/25 07:19:01;;;;;;;;;;;19.90;98.70;;;;;;5089758;28;19935;-66
2022/03/25 07:21:29;;;;;;;;;;;19.90;98.70;;;;;;5088058;28;19924;-67
2022/03/25 07:23:56;;;;;;;;;;;20.00;98.70;;;;;;5095737;28;19928;-67
2022/03/25 07:26:23;;;;;;;;;;;19.90;98.70;;;;;;5072114;28;19931;-64
2022/03/25 07:28:51;;;;;;;;;;;19.90;98.70;;;;;;5099213;28;20303;-66
2022/03/25 07:31:19;;;;;;;;;;;20.00;98.60;;;;;;5078518;28;19927;-66
2022/03/25 07:33:46;;;;;;;;;;;19.90;98.60;;;;;;5096360;28;19928;-65
2022/03/25 07:36:15;;;;;;;;;;;20.00;98.60;;;;;;5098994;28;20391;-67
2022/03/25 07:38:42;;;;;;;;;;;20.00;98.60;;;;;;5081908;28;19920;-64
2022/03/25 07:41:10;;;;;;;;;;;20.00;98.60;;;;;;5100237;28;19943;-65
2022/03/25 07:43:38;;;;;;;;;;;20.00;98.60;;;;;;5095943;28;19927;-62
2022/03/25 07:46:06;;;;;;;;;;;20.00;98.60;;;;;;5095757;28;19934;-64
2022/03/25 07:48:39;;;;;;;;;;;20.00;98.60;;;;;;5097699;28;20042;-66
2022/03/25 07:51:06;;;;;;;;;;;20.00;98.60;;;;;;5103356;28;19928;-65
2022/03/25 07:53:34;;;;;;;;;;;20.00;98.70;;;;;;5095727;28;20411;-66
2022/03/25 07:56:02;;;;;;;;;;;20.00;98.80;;;;;;5100739;28;19923;-65
2022/03/25 07:58:29;;;;;;;;;;;20.00;98.80;;;;;;5105085;28;20313;-64
2022/03/25 08:00:56;;;;;;;;;;;20.10;98.90;;;;;;5087234;28;19928;-64
2022/03/25 08:03:23;;;;;;;;;;;20.10;98.90;;;;;;5107094;28;19924;-64
2022/03/25 08:05:52;;;;;;;;;;;20.10;98.60;;;;;;5086594;28;19923;-64
2022/03/25 08:08:19;;;;;;;;;;;20.00;98.60;;;;;;5100967;28;19946;-62
2022/03/25 08:10:47;;;;;;;;;;;20.00;98.60;;;;;;5100573;28;19933;-64
2022/03/25 08:13:15;;;;;;;;;;;20.00;98.60;;;;;;5083112;28;19926;-65
2022/03/25 08:15:43;;;;;;;;;;;20.10;98.70;;;;;;5107306;28;19935;-61
2022/03/25 08:18:10;;;;;;;;;;;20.10;98.90;;;;;;5103760;28;20148;-63
2022/03/25 08:20:41;;;;;;;;;;;20.00;98.70;;;;;;5105352;28;19931;-61
2022/03/25 08:23:10;;;;;;;;;;;20.00;98.90;;;;;;5098606;28;19928;-58
2022/03/25 08:28:23;;;;;;;;;;;20.00;98.80;;;;;;5099972;28;20440;-65
2022/03/25 08:30:50;;;;;;;;;;;20.00;98.80;;;;;;5102204;28;19920;-62
2022/03/25 08:33:18;;;;;;;;;;;20.00;98.80;;;;;;5093505;28;20292;-61
2022/03/25 08:35:45;;;;;;;;;;;20.00;98.80;;;;;;5099145;28;20167;-61
2022/03/25 08:38:12;;;;;;;;;;;20.00;98.70;;;;;;5096519;28;19931;-64
2022/03/25 08:40:40;;;;;;;;;;;19.90;98.50;;;;;;5076421;28;19928;-64
2022/03/25 08:43:28;;;;;;;;;;;19.80;98.30;;;;;;5095796;28;19938;-62
2022/03/25 08:45:55;;;;;;;;;;;19.80;97.90;;;;;;5094579;28;19928;-63
2022/03/25 08:48:23;;;;;;;;;;;19.70;97.30;;;;;;5099933;28;19924;-59
2022/03/25 08:50:50;;;;;;;;;;;19.70;96.70;;;;;;5091318;28;19920;-61
2022/03/25 08:53:17;;;;;;;;;;;19.80;96.30;;;;;;5089157;28;20385;-58
2022/03/25 08:55:45;;;;;;;;;;;19.80;95.50;;;;;;5096716;28;20655;-58
2022/03/25 08:58:12;;;;;;;;;;;19.90;95.00;;;;;;5091741;28;19939;-61
2022/03/25 09:00:39;;;;;;;;;;;19.90;94.40;;;;;;5096990;28;19927;-62
2022/03/25 09:03:07;;;;;;;;;;;19.90;94.00;;;;;;5100165;28;20414;-60
2022/03/25 09:05:36;;;;;;;;;;;19.90;94.30;;;;;;5091713;28;19920;-59
2022/03/25 09:08:04;;;;;;;;;;;19.90;94.20;;;;;;5097635;28;19923;-62
2022/03/25 09:10:31;;;;;;;;;;;20.00;94.30;;;;;;5099710;28;20387;-62
2022/03/25 09:12:59;;;;;;;;;;;20.00;94.40;;;;;;5095438;28;19931;-60
2022/03/25 09:15:26;;;;;;;;;;;20.00;94.60;;;;;;5098133;28;19928;-64
2022/03/25 09:17:54;;;;;;;;;;;20.00;94.70;;;;;;5095866;28;19924;-64
2022/03/25 09:20:21;;;;;;;;;;;20.00;94.50;;;;;;5098909;28;20383;-61
2022/03/25 09:22:48;;;;;;;;;;;20.00;94.70;;;;;;5093886;28;20434;-61
2022/03/25 09:25:16;;;;;;;;;;;20.00;94.90;;;;;;5098717;28;20391;-62
2022/03/25 09:27:43;;;;;;;;;;;20.00;95.10;;;;;;5097476;28;19931;-60
2022/03/25 09:30:12;;;;;;;;;;;20.00;94.90;;;;;;5096091;28;19920;-57
2022/03/25 09:33:00;;;;;;;;;;;20.00;94.90;;;;;;5087463;28;19975;-60
2022/03/25 09:35:36;;;;;;;;;;;20.00;95.10;;;;;;5093962;28;20380;-61
2022/03/25 09:38:04;;;;;;;;;;;20.00;95.30;;;;;;5080674;28;19934;-60
2022/03/25 09:40:32;;;;;;;;;;;20.00;95.40;;;;;;5077595;28;19937;-57
2022/03/25 09:42:59;;;;;;;;;;;20.00;95.50;;;;;;5099507;28;19927;-59
2022/03/25 09:45:27;;;;;;;;;;;20.00;95.70;;;;;;5077524;28;20402;-59
2022/03/25 09:47:55;;;;;;;;;;;20.00;95.70;;;;;;5097671;28;19923;-57
2022/03/25 09:50:23;;;;;;;;;;;20.00;95.60;;;;;;5096878;28;19924;-58
2022/03/25 09:52:51;;;;;;;;;;;20.00;95.60;;;;;;5089909;28;20395;-59
2022/03/25 09:55:42;;;;;;;;;;;20.00;95.60;;;;;;5090662;28;19924;-57
2022/03/25 09:58:12;;;;;;;;;;;20.00;95.70;;;;;;5099930;28;20207;-61
2022/03/25 10:00:40;;;;;;;;;;;20.00;95.70;;;;;;5081524;28;19931;-58
2022/03/25 10:03:12;;;;;;;;;;;20.00;95.80;;;;;;5081026;28;19927;-59
2022/03/25 10:05:59;;;;;;;;;;;20.00;95.90;;;;;;5095432;28;19927;-59
2022/03/25 10:08:42;;;;;;;;;;;20.00;96.00;;;;;;5091709;28;19928;-58
2022/03/25 10:11:22;;;;;;;;;;;20.00;96.10;;;;;;5096158;28;20427;-57
2022/03/25 10:14:09;;;;;;;;;;;20.00;96.10;;;;;;5096554;28;19928;-58
2022/03/25 10:16:36;;;;;;;;;;;20.10;96.20;;;;;;5093413;28;19939;-63
2022/03/25 10:19:04;;;;;;;;;;;20.00;96.30;;;;;;5095888;28;19924;-62
2022/03/25 10:21:48;;;;;;;;;;;20.10;96.50;;;;;;5094240;28;19942;-60
2022/03/25 10:24:18;;;;;;;;;;;20.10;96.50;;;;;;5098924;28;19930;-62
2022/03/25 10:26:46;;;;;;;;;;;20.10;96.70;;;;;;5094342;28;19935;-63
2022/03/25 10:29:21;;;;;;;;;;;20.00;97.00;;;;;;5093157;28;19924;-61
2022/03/25 10:32:07;;;;;;;;;;;20.00;97.00;;;;;;5098557;28;19930;-63
2022/03/25 10:34:38;;;;;;;;;;;20.10;97.00;;;;;;5097229;28;20256;-62
2022/03/25 10:37:07;;;;;;;;;;;20.10;96.90;;;;;;5095409;28;19928;-63
2022/03/25 10:39:34;;;;;;;;;;;20.10;96.80;;;;;;5095282;28;19930;-61
2022/03/25 10:42:03;;;;;;;;;;;20.10;96.70;;;;;;5098873;28;19923;-62
2022/03/25 10:44:48;;;;;;;;;;;20.10;96.40;;;;;;5093003;28;20331;-62
2022/03/25 10:47:16;;;;;;;;;;;20.10;95.60;;;;;;5089450;28;19923;-63
2022/03/25 10:49:46;;;;;;;;;;;20.20;96.10;;;;;;5085883;28;19928;-64
2022/03/25 10:52:22;;;;;;;;;;;20.10;96.10;;;;;;5092945;28;19964;-60
2022/03/25 10:55:17;;;;;;;;;;;20.20;96.10;;;;;;5092047;28;19928;-63
2022/03/25 10:57:54;;;;;;;;;;;20.20;96.20;;;;;;5096715;28;19946;-62
2022/03/25 11:00:22;;;;;;;;;;;20.10;96.40;;;;;;5092713;28;19924;-63
2022/03/25 11:02:50;;;;;;;;;;;20.20;96.50;;;;;;5094854;28;19942;-63
2022/03/25 11:05:18;;;;;;;;;;;20.20;96.50;;;;;;5090841;28;19931;-63
2022/03/25 11:07:46;;;;;;;;;;;20.10;96.50;;;;;;5094985;28;19940;-62
2022/03/25 11:10:15;;;;;;;;;;;20.20;96.70;;;;;;5090040;28;19934;-63
2022/03/25 11:12:44;;;;;;;;;;;20.20;97.20;;;;;;5096637;28;19931;-62
2022/03/25 11:15:15;;;;;;;;;;;20.10;97.00;;;;;;5093089;28;19928;-63
2022/03/25 11:17:43;;;;;;;;;;;20.10;97.00;;;;;;5098843;28;19924;-62
2022/03/25 11:20:15;;;;;;;;;;;20.20;97.40;;;;;;5097130;28;19931;-62
2022/03/25 11:22:49;;;;;;;;;;;20.20;97.50;;;;;;5094528;28;19924;-61
2022/03/25 11:25:21;;;;;;;;;;;20.20;97.60;;;;;;5089467;28;19924;-62
2022/03/25 11:27:51;;;;;;;;;;;20.20;97.90;;;;;;5091577;28;20461;-62
2022/03/25 11:30:19;;;;;;;;;;;20.20;98.70;;;;;;5093367;28;19949;-63
2022/03/25 11:33:04;;;;;;;;;;;20.20;99.10;;;;;;5097315;28;19923;-61
2022/03/25 11:35:33;;;;;;;;;;;20.30;99.30;;;;;;5092973;28;19927;-59
2022/03/25 11:38:10;;;;;;;;;;;20.20;99.30;;;;;;5094273;28;19951;-62
2022/03/25 11:40:42;;;;;;;;;;;20.20;98.90;;;;;;5097531;28;19923;-63
2022/03/25 11:43:13;;;;;;;;;;;20.10;98.60;;;;;;5079000;28;19923;-59
2022/03/25 11:45:41;;;;;;;;;;;20.10;98.40;;;;;;5091778;28;20373;-60
2022/03/25 11:48:08;;;;;;;;;;;20.10;98.50;;;;;;5099586;28;20339;-62
2022/03/25 11:50:39;;;;;;;;;;;20.20;98.40;;;;;;5092905;28;19923;-60
2022/03/25 11:53:27;;;;;;;;;;;20.20;98.00;;;;;;5089322;28;19924;-60
2022/03/25 11:55:54;;;;;;;;;;;20.20;97.80;;;;;;5092986;28;19924;-60
2022/03/25 11:58:21;;;;;;;;;;;20.20;97.40;;;;;;5095212;28;20493;-61
2022/03/25 12:01:08;;;;;;;;;;;20.30;97.10;;;;;;5091374;28;19931;-59
2022/03/25 12:03:47;;;;;;;;;;;20.20;97.00;;;;;;5093773;28;20300;-59
2022/03/25 12:06:16;;;;;;;;;;;20.20;96.40;;;;;;5093439;28;20407;-60
2022/03/25 12:08:57;;;;;;;;;;;20.20;96.10;;;;;;5096132;28;20293;-59
2022/03/25 12:11:43;;;;;;;;;;;20.20;95.80;;;;;;5092946;28;19923;-60
2022/03/25 12:14:10;;;;;;;;;;;20.20;95.60;;;;;;5096611;28;19924;-58
2022/03/25 12:16:51;;;;;;;;;;;20.20;95.60;;;;;;5088559;28;19924;-61
2022/03/25 12:19:28;;;;;;;;;;;20.20;95.40;;;;;;5094371;28;19935;-57
2022/03/25 12:21:56;;;;;;;;;;;20.20;95.00;;;;;;5097803;28;19923;-57
2022/03/25 12:24:24;;;;;;;;;;;20.20;94.80;;;;;;5089149;28;19924;-60
2022/03/25 12:27:00;;;;;;;;;;;20.10;94.50;;;;;;5092944;28;20342;-60
2022/03/25 12:29:31;;;;;;;;;;;20.20;94.30;;;;;;5094673;28;20533;-60
2022/03/25 12:32:23;;;;;;;;;;;20.20;94.10;;;;;;5098309;28;19924;-61
2022/03/25 12:34:57;;;;;;;;;;;20.10;93.60;;;;;;5098158;28;19926;-59
2022/03/25 12:37:24;;;;;;;;;;;20.10;93.20;;;;;;5077151;28;20372;-60
2022/03/25 12:39:52;;;;;;;;;;;20.10;93.10;;;;;;5101690;28;20119;-62
2022/03/25 12:42:19;;;;;;;;;;;20.10;93.20;;;;;;5088625;28;19924;-58
2022/03/25 12:44:53;;;;;;;;;;;20.20;93.10;;;;;;5110007;28;19958;-60
2022/03/25 12:47:30;;;;;;;;;;;20.10;93.30;;;;;;5115169;28;20052;-62
2022/03/25 12:49:58;;;;;;;;;;;20.20;93.20;;;;;;5117827;28;20189;-59
2022/03/25 12:52:26;;;;;;;;;;;20.10;93.10;;;;;;5107810;28;19919;-59
2022/03/25 12:54:54;;;;;;;;;;;20.10;93.30;;;;;;5098644;28;19924;-61
2022/03/25 12:57:31;;;;;;;;;;;20.10;93.30;;;;;;5097088;28;20001;-59
2022/03/25 12:59:59;;;;;;;;;;;20.00;93.00;;;;;;5088326;28;19931;-60
2022/03/25 13:02:30;;;;;;;;;;;20.00;92.60;;;;;;5103842;28;19924;-58
2022/03/25 13:05:05;;;;;;;;;;;20.00;92.70;;;;;;5094705;28;19923;-57
2022/03/25 13:07:32;;;;;;;;;;;20.00;92.70;;;;;;5096610;28;19928;-58
2022/03/25 13:09:59;;;;;;;;;;;20.00;92.60;;;;;;5080563;28;20391;-58
2022/03/25 13:12:27;;;;;;;;;;;20.00;92.60;;;;;;5096708;28;19927;-61
2022/03/25 13:14:54;;;;;;;;;;;20.00;92.70;;;;;;5091819;28;20672;-61
2022/03/25 13:17:27;;;;;;;;;;;20.00;92.80;;;;;;5089215;28;19927;-59
2022/03/25 13:19:57;;;;;;;;;;;20.00;93.00;;;;;;5091449;28;19998;-61
2022/03/25 13:22:24;;;;;;;;;;;20.00;93.00;;;;;;5090081;28;19920;-58
2022/03/25 13:24:52;;;;;;;;;;;20.00;93.10;;;;;;5087464;28;20000;-57
2022/03/25 13:27:19;;;;;;;;;;;20.00;93.10;;;;;;5089062;28;19931;-62
2022/03/25 13:29:47;;;;;;;;;;;20.00;93.20;;;;;;5089587;28;19924;-60
2022/03/25 13:32:32;;;;;;;;;;;20.00;93.20;;;;;;5103667;28;19920;-59
2022/03/25 13:35:01;;;;;;;;;;;20.10;93.30;;;;;;5088309;28;19920;-61
2022/03/25 13:37:28;;;;;;;;;;;20.10;93.30;;;;;;5088203;28;20690;-60
2022/03/25 13:39:55;;;;;;;;;;;20.10;93.30;;;;;;5103640;28;19923;-62
2022/03/25 13:42:30;;;;;;;;;;;20.10;93.40;;;;;;5088629;28;19943;-57
2022/03/25 13:45:11;;;;;;;;;;;20.10;93.40;;;;;;5097891;28;20026;-60
2022/03/25 13:47:38;;;;;;;;;;;20.10;93.40;;;;;;5088433;28;19923;-57
2022/03/25 13:50:15;;;;;;;;;;;20.10;93.30;;;;;;5098427;28;19920;-61
2022/03/25 13:52:52;;;;;;;;;;;20.20;93.30;;;;;;5087698;28;19924;-61
2022/03/25 13:55:20;;;;;;;;;;;20.20;93.30;;;;;;5104508;28;19924;-60
2022/03/25 13:57:54;;;;;;;;;;;20.30;93.20;;;;;;5087745;28;19920;-61
2022/03/25 14:00:35;;;;;;;;;;;20.20;93.20;;;;;;5096268;28;19919;-62
2022/03/25 14:03:03;;;;;;;;;;;20.30;93.20;;;;;;5103633;28;19924;-59
2022/03/25 14:05:31;;;;;;;;;;;20.30;93.10;;;;;;5095146;28;19924;-60
2022/03/25 14:07:59;;;;;;;;;;;20.30;93.00;;;;;;5088060;28;19931;-60
2022/03/25 14:10:26;;;;;;;;;;;20.30;92.90;;;;;;5099862;28;20340;-59
2022/03/25 14:12:54;;;;;;;;;;;20.40;92.80;;;;;;5098358;28;19923;-63
2022/03/25 14:15:24;;;;;;;;;;;20.40;92.80;;;;;;5101406;28;19923;-60
2022/03/25 14:17:57;;;;;;;;;;;20.40;92.80;;;;;;5092443;28;19924;-60
2022/03/25 14:20:29;;;;;;;;;;;20.40;92.80;;;;;;5093089;28;19927;-60
2022/03/25 14:22:58;;;;;;;;;;;20.40;92.70;;;;;;5087954;28;19930;-61
2022/03/25 14:25:33;;;;;;;;;;;20.50;92.70;;;;;;5100362;28;19930;-61
2022/03/25 14:28:07;;;;;;;;;;;20.50;92.70;;;;;;5088840;28;19940;-59
2022/03/25 14:30:34;;;;;;;;;;;20.50;92.60;;;;;;5107211;28;19933;-61